Ride Results

NSW State Championships (11-05-2013)
Ride distance: 160.0 km

Outcomes - NSW State Championships (11-05-2013)
Division No. of Entries Retired / DNE Completed Withdrawn Ineligible V/O Percentage Completed
HW 5 - 0 1 - 4 0.00%
MW 24 - 10 1 - 13 41.67%
LW 9 - 5 - - 4 55.56%
JN 5 - 3 - - 2 60.00%
Totals 43 - 18 2 - 23 41.86%
Results - NSW State Championships (11-05-2013)
No. Rider Horse Place Time Leg Speeds Total
Km/Hr
H/R bpm
Heavyweight
39 Roy Barsby Dumaresq Waltzing Matilda Withdrawn L4 0:00:00 - - 36, 44, 44, 48, 44 (Avg:45)
42 Stuart Hitchcock Ralvon Courier Lame L4 0:00:00 12.4, 11.0, 9.6, 8.1 - 36, 46, 56, 54, 60 (Avg:54)
38 Gail Fisher Aylah Heart Rate L3 0:00:00 14.2, 13.7, 9.5 - 35, 44, 48, 66 (Avg:52)
33 Jason Duff Imparja Cherry Tree Allegro Lame L2 0:00:00 13.0, 11.0 - 40, 40, 40 (Avg:40)
32 Jane Martin Kiljora Park Playboy's Shah-Razz Lame L1 0:00:00 13.0 - 32, 48 (Avg:48)
Middleweight
21 Jennifer Annetts Littlebanks Dizzy 1 (BC) 11:13:00 15.3, 14.8, 15.3, 11.6, 14.3 14.26 42, 48, 52, 48, 48, 48 (Avg:48)
20 Ian Curtis Blake's Heaven Summer Reign 2 11:17:00 16.3, 14.8, 16.4, 10.1, 14.3 14.18 33, 44, 49, 56, 60, 56 (Avg:53)
8 Jennifer Gilbertson Kurrajong Shadad 3 12:26:00 15.3, 13.0, 14.2, 10.2, 9.8 12.87 38, 42, 52, 50, 52, 56 (Avg:50)
37 Sonia Bonham Box Hill Bullzeye 4 13:06:00 14.2, 13.7, 12.9, 9.3, 9.8 12.21 30, 40, 38, 40, 59, 46 (Avg:44)
9 John Symons Forest Dale Belle De Jour 5 14:00:00 15.3, 13.0, 14.2, 9.9, 4.2 11.43 32, 48, 44, 52, 52, 48 (Avg:48)
43 Kate Pilley Abrock Lucinda 6 14:06:00 12.8, 11.8, 12.0, 9.4, 9.1 11.35 35, 42, 48, 48, 48, 52 (Avg:47)
34 Brooke Campbell Imparja Ben 7 14:40:00 13.0, 11.0, 12.9, 8.2, 8.1 10.91 39, 44, 54, 60, 58, 58 (Avg:54)
16 Carol Major Saradon 8 15:24:00 12.3, 11.0, 10.7, 8.4, 7.9 10.39 35, 52, 60, 58, 56, 56 (Avg:56)
2 Ruth Van der Wegen Aloha Ameer 9 16:14:00 11.5, 10.7, 10.8, 8.1, 6.2 9.86 31, 36, 40, 48, 48, 42 (Avg:42)
30 Fiona Meller Malu Vale Embers 10 16:23:00 11.6, 10.6, 10.2, 8.5, 5.7 9.77 34, 40, 52, 52, 58, 40 (Avg:48)
5 Victoria Bonham Bridle Track Bogart Lame L5 0:00:00 13.0, 10.9, 10.1, 7.3, 6.2 - 35, 48, 52, 54, 56, 60 (Avg:54)
35 Allison Knihinicki Ky Lame L5 0:00:00 13.0, 12.0, 15.3, 10.7, 13.7 - 31, 48, 42, 42, 52, 44 (Avg:45)
17 Emma Fletcher Diamond R Oscar Lame L4 0:00:00 11.4, 11.1, 10.7, 8.2 - 34, 44, 44, 52, 56 (Avg:49)
29 Thomas Hermann TTH Headliner Lame L4 0:00:00 15.3, 14.8, 15.3, 11.6 - 32, 44, 46, 54, 56 (Avg:50)
28 Rachel Reid Blake's Heaven Angelico Lame L4 0:00:00 13.4, 11.8, 12.0, 11.8 - 36, 44, 44, 52, 52 (Avg:48)
36 Mary Symons Back Creek Karen Heart Rate L4 0:00:00 12.8, 12.3, 10.2, 6.8 - 33, 46, 52, 52, 67 (Avg:54)
41 April Bonham Lyndrian Genesis Lame L3 0:00:00 12.4, 11.0, 9.6 - 44, 44, 40, 59 (Avg:47)
19 Talea Hasko-Stewart Blake's Heaven Bombora Lame L3 0:00:00 16.3, 14.8, 16.4 - 35, 44, 48, 58 (Avg:50)
13 Bob Locke Ally Withdrawn L3 0:00:00 - - 32, 44, 52, 59 (Avg:51)
24 Brett Willis Carlwood Park Austen Lame L3 0:00:00 13.0, 12.0, 10.0 - 32, 44, 52, 56 (Avg:50)
14 Tracy Haack A'Landell Enigma Lame L1 0:00:00 9.3 - 36, 44 (Avg:44)
31 Sonya Ruprecht Yahweh-Salih Sir Ibn Gelibene Heart Rate L1 0:00:00 14.2 - 34, 60 (Avg:60)
40 Deanna Trevena Dumaresq Jackson Heart Rate L1 0:00:00 12.8 - 32, 62 (Avg:62)
3 Jennifer Caslick Karabil Abbra Lame P/R 0:00:00 - - 36
Lightweight
11 Julie Brooks Aloha Byshara 1 13:06:00 14.2, 13.7, 12.9, 9.3, 9.8 12.21 34, 48, 54, 60, 54, 46 (Avg:52)
6 Dianne Luker Dumaresq Legends of Warr 2 14:24:00 14.1, 12.3, 12.2, 8.2, 7.3 11.11 36, 46, 48, 48, 52, 52 (Avg:49)
7 Sue Todd Shalacey Bear 2 14:24:00 14.1, 12.3, 12.2, 8.2, 7.3 11.11 34, 42, 56, 54, 60, 56 (Avg:53)
26 Anne Hills Kerewong Shelfyre 4 (BC) 15:24:00 12.3, 11.0, 10.7, 8.4, 7.9 10.39 33, 40, 48, 48, 52, 42 (Avg:46)
12 Sally Fenner Cherox Aladdin 5 16:24:00 13.0, 11.8, 10.4, 6.8, 6.1 9.76 34, 42, 50, 56, 50, 50 (Avg:49)
23 Leanne Holz Carlwood Park Frosty Lame L5 0:00:00 13.0, 12.0, 10.0, 7.4, 5.1 - 34, 40, 42, 40, 52, 48 (Avg:44)
44 Jessica Taylor Diamond R Amaya Heart Rate L4 0:00:00 11.4, 11.1, 10.6, 8.2 - 33, 40, 58, 52, 65 (Avg:53)
25 Racheal Townsend Chingford Blaze Away Lame L3 0:00:00 12.0, 10.5, 10.8 - 32, 36, 44, 44 (Avg:41)
1 Peter Holmes Attallah Esq Jabu Lame L1 0:00:00 11.5 - 32, 40 (Avg:40)
Junior
27 Olivia De Gruchy Blake's Heaven Venus 1 12:17:00 13.4, 11.8, 12.0, 16.2, 10.8 13.03 36, 48, 48, 56, 58, 52 (Avg:52)
22 Zac Hooper Littlebanks Antwonett 1 (BC) 12:17:00 12.3, 11.9, 13.3, 16.3, 10.8 13.03 37, 48, 48, 52, 58, 56 (Avg:52)
10 Cybele Coddington Burren-dah Narla 3 16:24:00 12.0, 10.5, 10.8, 7.9, 5.7 9.76 30, 40, 56, 48, 58, 44 (Avg:49)
4 Indigo Noonan Orr-Brae Rajiyaah Lame L3 0:00:00 13.0, 10.9, 10.1 - 34, 49, 52, 54 (Avg:51)
18 Harrison Berg Mahazin Bronze Azar Lame L1 0:00:00 11.9 - 34, 48 (Avg:48)